sensor_id;sensor_type;location;lat;lon;timestamp;pressure;altitude;pressure_sealevel;temperature;humidity
78206;BME280;67480;48.920;12.880;2023-08-08T00:00:47;97230.28;;;19.27;45.17
78206;BME280;67480;48.920;12.880;2023-08-08T00:03:13;97232.25;;;19.54;44.98
78206;BME280;67480;48.920;12.880;2023-08-08T00:05:38;97217.72;;;19.46;44.73
78206;BME280;67480;48.920;12.880;2023-08-08T00:08:04;97219.75;;;19.53;44.47
78206;BME280;67480;48.920;12.880;2023-08-08T00:10:29;97220.13;;;19.51;44.57
78206;BME280;67480;48.920;12.880;2023-08-08T00:12:55;97228.25;;;19.74;43.89
78206;BME280;67480;48.920;12.880;2023-08-08T00:15:20;97223.94;;;19.46;44.62
78206;BME280;67480;48.920;12.880;2023-08-08T00:17:46;97221.56;;;19.45;44.38
78206;BME280;67480;48.920;12.880;2023-08-08T00:20:11;97226.63;;;19.43;44.76
78206;BME280;67480;48.920;12.880;2023-08-08T00:22:37;97227.00;;;19.41;44.38
78206;BME280;67480;48.920;12.880;2023-08-08T00:25:02;97228.56;;;19.42;44.36
78206;BME280;67480;48.920;12.880;2023-08-08T00:27:28;97220.16;;;19.28;44.87
78206;BME280;67480;48.920;12.880;2023-08-08T00:29:53;97223.34;;;19.34;44.30
78206;BME280;67480;48.920;12.880;2023-08-08T00:32:20;97224.69;;;19.20;45.15
78206;BME280;67480;48.920;12.880;2023-08-08T00:34:45;97226.81;;;19.07;44.96
78206;BME280;67480;48.920;12.880;2023-08-08T00:37:10;97218.75;;;19.15;44.62
78206;BME280;67480;48.920;12.880;2023-08-08T00:39:36;97218.78;;;18.95;44.74
78206;BME280;67480;48.920;12.880;2023-08-08T00:42:01;97224.75;;;18.81;45.36
78206;BME280;67480;48.920;12.880;2023-08-08T00:44:27;97218.44;;;18.97;44.90
78206;BME280;67480;48.920;12.880;2023-08-08T00:46:52;97222.19;;;18.88;44.82
78206;BME280;67480;48.920;12.880;2023-08-08T00:49:18;97227.44;;;18.78;44.96
78206;BME280;67480;48.920;12.880;2023-08-08T00:51:43;97213.94;;;18.65;45.33
78206;BME280;67480;48.920;12.880;2023-08-08T00:54:09;97227.78;;;18.76;45.38
78206;BME280;67480;48.920;12.880;2023-08-08T00:56:35;97229.59;;;18.68;45.35
78206;BME280;67480;48.920;12.880;2023-08-08T00:59:01;97225.16;;;18.60;45.80
78206;BME280;67480;48.920;12.880;2023-08-08T01:01:27;97214.66;;;18.82;45.59
78206;BME280;67480;48.920;12.880;2023-08-08T01:03:53;97223.97;;;19.00;44.99
78206;BME280;67480;48.920;12.880;2023-08-08T01:08:58;97224.09;;;19.07;45.26
78206;BME280;67480;48.920;12.880;2023-08-08T01:11:27;97219.78;;;19.29;44.32
78206;BME280;67480;48.920;12.880;2023-08-08T01:13:55;97215.63;;;19.13;44.93
78206;BME280;67480;48.920;12.880;2023-08-08T01:16:23;97220.47;;;19.23;44.88
78206;BME280;67480;48.920;12.880;2023-08-08T01:18:49;97223.50;;;19.18;45.12
78206;BME280;67480;48.920;12.880;2023-08-08T01:21:16;97223.25;;;19.53;44.52
78206;BME280;67480;48.920;12.880;2023-08-08T01:26:32;97224.38;;;19.49;44.45
78206;BME280;67480;48.920;12.880;2023-08-08T01:28:58;97221.66;;;19.49;45.15
78206;BME280;67480;48.920;12.880;2023-08-08T01:31:23;97214.94;;;19.19;45.21
78206;BME280;67480;48.920;12.880;2023-08-08T01:33:49;97218.50;;;19.23;45.36
78206;BME280;67480;48.920;12.880;2023-08-08T01:36:25;97207.97;;;19.22;45.50
78206;BME280;67480;48.920;12.880;2023-08-08T01:38:53;97206.38;;;19.44;45.23
78206;BME280;67480;48.920;12.880;2023-08-08T01:41:22;97204.53;;;19.52;45.18
78206;BME280;67480;48.920;12.880;2023-08-08T01:43:49;97210.09;;;19.59;44.85
78206;BME280;67480;48.920;12.880;2023-08-08T01:46:15;97210.16;;;19.62;44.94
78206;BME280;67480;48.920;12.880;2023-08-08T01:48:44;97203.97;;;19.39;45.14
78206;BME280;67480;48.920;12.880;2023-08-08T01:51:10;97203.88;;;19.35;45.32
78206;BME280;67480;48.920;12.880;2023-08-08T01:53:35;97194.78;;;19.51;44.75
78206;BME280;67480;48.920;12.880;2023-08-08T01:56:00;97204.47;;;19.48;45.02
78206;BME280;67480;48.920;12.880;2023-08-08T01:58:26;97196.91;;;19.38;45.18
78206;BME280;67480;48.920;12.880;2023-08-08T02:00:51;97205.56;;;19.43;45.42
78206;BME280;67480;48.920;12.880;2023-08-08T02:03:16;97201.38;;;19.50;45.29
78206;BME280;67480;48.920;12.880;2023-08-08T02:05:41;97205.53;;;19.40;45.07
78206;BME280;67480;48.920;12.880;2023-08-08T02:08:07;97205.00;;;19.57;45.02
78206;BME280;67480;48.920;12.880;2023-08-08T02:10:32;97208.31;;;19.70;44.78
78206;BME280;67480;48.920;12.880;2023-08-08T02:12:57;97206.00;;;19.72;44.97
78206;BME280;67480;48.920;12.880;2023-08-08T02:15:23;97202.19;;;19.27;45.74
78206;BME280;67480;48.920;12.880;2023-08-08T02:17:50;97200.47;;;19.65;45.36
78206;BME280;67480;48.920;12.880;2023-08-08T02:20:15;97196.47;;;19.59;45.34
78206;BME280;67480;48.920;12.880;2023-08-08T02:22:40;97202.44;;;19.41;45.70
78206;BME280;67480;48.920;12.880;2023-08-08T02:25:06;97196.44;;;19.32;46.13
78206;BME280;67480;48.920;12.880;2023-08-08T02:27:31;97191.81;;;19.36;45.74
78206;BME280;67480;48.920;12.880;2023-08-08T02:29:56;97185.38;;;19.48;45.75
78206;BME280;67480;48.920;12.880;2023-08-08T02:32:23;97179.22;;;19.55;45.66
78206;BME280;67480;48.920;12.880;2023-08-08T02:34:48;97179.78;;;19.37;46.03
78206;BME280;67480;48.920;12.880;2023-08-08T02:37:13;97185.81;;;19.27;46.10
78206;BME280;67480;48.920;12.880;2023-08-08T02:39:39;97179.88;;;19.44;46.07
78206;BME280;67480;48.920;12.880;2023-08-08T02:42:04;97165.44;;;19.44;46.02
78206;BME280;67480;48.920;12.880;2023-08-08T02:44:30;97185.00;;;19.50;45.98
78206;BME280;67480;48.920;12.880;2023-08-08T02:46:55;97169.28;;;18.93;46.47
78206;BME280;67480;48.920;12.880;2023-08-08T02:49:21;97173.78;;;19.05;46.57
78206;BME280;67480;48.920;12.880;2023-08-08T02:51:46;97172.72;;;19.36;46.35
78206;BME280;67480;48.920;12.880;2023-08-08T02:54:11;97180.00;;;19.28;46.58
78206;BME280;67480;48.920;12.880;2023-08-08T02:56:36;97174.13;;;19.26;46.47
78206;BME280;67480;48.920;12.880;2023-08-08T02:59:02;97171.94;;;19.62;45.87
78206;BME280;67480;48.920;12.880;2023-08-08T03:01:27;97172.88;;;19.74;45.35
78206;BME280;67480;48.920;12.880;2023-08-08T03:03:52;97172.44;;;19.45;45.95
78206;BME280;67480;48.920;12.880;2023-08-08T03:06:18;97178.97;;;19.37;46.23
78206;BME280;67480;48.920;12.880;2023-08-08T03:08:43;97168.25;;;19.51;45.62
78206;BME280;67480;48.920;12.880;2023-08-08T03:11:08;97179.09;;;19.44;46.20
78206;BME280;67480;48.920;12.880;2023-08-08T03:13:34;97177.81;;;19.38;46.43
78206;BME280;67480;48.920;12.880;2023-08-08T03:16:00;97174.81;;;19.46;46.32
78206;BME280;67480;48.920;12.880;2023-08-08T03:18:25;97168.41;;;19.35;46.43
78206;BME280;67480;48.920;12.880;2023-08-08T03:20:53;97181.97;;;19.55;46.11
78206;BME280;67480;48.920;12.880;2023-08-08T03:23:18;97169.91;;;19.56;45.79
78206;BME280;67480;48.920;12.880;2023-08-08T03:25:44;97174.34;;;19.41;46.26
78206;BME280;67480;48.920;12.880;2023-08-08T03:28:09;97179.22;;;19.55;45.64
78206;BME280;67480;48.920;12.880;2023-08-08T03:30:38;97176.56;;;19.58;45.61
78206;BME280;67480;48.920;12.880;2023-08-08T03:33:04;97179.41;;;19.65;45.70
78206;BME280;67480;48.920;12.880;2023-08-08T03:35:30;97178.69;;;19.72;45.58
78206;BME280;67480;48.920;12.880;2023-08-08T03:37:55;97173.97;;;19.69;45.53
78206;BME280;67480;48.920;12.880;2023-08-08T03:40:20;97171.97;;;19.66;45.09
78206;BME280;67480;48.920;12.880;2023-08-08T03:42:46;97167.91;;;19.53;45.06
78206;BME280;67480;48.920;12.880;2023-08-08T03:45:11;97170.78;;;19.90;44.44
78206;BME280;67480;48.920;12.880;2023-08-08T03:47:37;97166.09;;;19.64;45.36
78206;BME280;67480;48.920;12.880;2023-08-08T03:50:03;97168.41;;;19.35;46.17
78206;BME280;67480;48.920;12.880;2023-08-08T03:52:29;97166.47;;;19.62;45.74
78206;BME280;67480;48.920;12.880;2023-08-08T03:54:55;97166.16;;;19.41;46.49
78206;BME280;67480;48.920;12.880;2023-08-08T03:57:20;97170.47;;;19.69;45.41
78206;BME280;67480;48.920;12.880;2023-08-08T03:59:45;97179.03;;;19.67;45.97
78206;BME280;67480;48.920;12.880;2023-08-08T04:02:11;97165.59;;;19.28;46.02
78206;BME280;67480;48.920;12.880;2023-08-08T04:04:36;97175.63;;;19.24;46.95
78206;BME280;67480;48.920;12.880;2023-08-08T04:07:01;97179.19;;;19.24;46.86
78206;BME280;67480;48.920;12.880;2023-08-08T04:09:27;97177.44;;;19.66;46.10
78206;BME280;67480;48.920;12.880;2023-08-08T04:11:52;97188.53;;;19.77;45.76
78206;BME280;67480;48.920;12.880;2023-08-08T04:14:17;97179.78;;;19.37;46.67
78206;BME280;67480;48.920;12.880;2023-08-08T04:16:43;97190.97;;;19.32;46.78
78206;BME280;67480;48.920;12.880;2023-08-08T04:19:08;97186.84;;;19.95;45.85
78206;BME280;67480;48.920;12.880;2023-08-08T04:21:33;97179.31;;;19.85;45.61
78206;BME280;67480;48.920;12.880;2023-08-08T04:23:59;97192.47;;;19.53;46.40
78206;BME280;67480;48.920;12.880;2023-08-08T04:26:25;97179.97;;;19.52;46.40
78206;BME280;67480;48.920;12.880;2023-08-08T04:28:50;97191.16;;;19.70;45.86
78206;BME280;67480;48.920;12.880;2023-08-08T04:31:16;97190.34;;;19.69;45.94
78206;BME280;67480;48.920;12.880;2023-08-08T04:33:41;97191.94;;;19.70;46.01
78206;BME280;67480;48.920;12.880;2023-08-08T04:36:06;97198.75;;;20.10;45.53
78206;BME280;67480;48.920;12.880;2023-08-08T04:38:31;97195.03;;;20.26;44.93
78206;BME280;67480;48.920;12.880;2023-08-08T04:40:57;97195.88;;;19.99;45.74
78206;BME280;67480;48.920;12.880;2023-08-08T04:43:22;97196.78;;;20.07;45.45
78206;BME280;67480;48.920;12.880;2023-08-08T04:45:47;97199.03;;;20.01;45.89
78206;BME280;67480;48.920;12.880;2023-08-08T04:48:13;97197.06;;;20.02;45.72
78206;BME280;67480;48.920;12.880;2023-08-08T04:50:38;97195.78;;;20.23;45.01
78206;BME280;67480;48.920;12.880;2023-08-08T04:53:04;97208.09;;;20.09;45.61
78206;BME280;67480;48.920;12.880;2023-08-08T04:55:29;97200.13;;;19.97;46.09
78206;BME280;67480;48.920;12.880;2023-08-08T04:57:54;97195.56;;;20.05;45.77
78206;BME280;67480;48.920;12.880;2023-08-08T05:00:20;97187.81;;;20.44;45.13
78206;BME280;67480;48.920;12.880;2023-08-08T05:02:45;97188.94;;;20.39;44.93
78206;BME280;67480;48.920;12.880;2023-08-08T05:05:10;97186.75;;;20.18;45.51
78206;BME280;67480;48.920;12.880;2023-08-08T05:07:36;97191.53;;;20.25;45.51
78206;BME280;67480;48.920;12.880;2023-08-08T05:10:03;97189.97;;;20.28;45.53
78206;BME280;67480;48.920;12.880;2023-08-08T05:12:28;97194.84;;;20.11;45.65
78206;BME280;67480;48.920;12.880;2023-08-08T05:14:54;97210.38;;;20.04;46.04
78206;BME280;67480;48.920;12.880;2023-08-08T05:17:19;97198.22;;;19.97;45.74
78206;BME280;67480;48.920;12.880;2023-08-08T05:19:44;97204.69;;;20.16;45.81
78206;BME280;67480;48.920;12.880;2023-08-08T05:22:10;97198.63;;;19.99;46.04
78206;BME280;67480;48.920;12.880;2023-08-08T05:24:35;97204.50;;;20.32;45.46
78206;BME280;67480;48.920;12.880;2023-08-08T05:27:01;97191.94;;;20.27;45.48
78206;BME280;67480;48.920;12.880;2023-08-08T05:29:26;97199.56;;;20.45;45.04
78206;BME280;67480;48.920;12.880;2023-08-08T05:31:51;97206.38;;;20.28;45.33
78206;BME280;67480;48.920;12.880;2023-08-08T05:34:17;97213.38;;;19.95;45.76
78206;BME280;67480;48.920;12.880;2023-08-08T05:36:42;97206.72;;;20.23;45.58
78206;BME280;67480;48.920;12.880;2023-08-08T05:39:08;97206.00;;;20.29;45.08
78206;BME280;67480;48.920;12.880;2023-08-08T05:41:34;97203.66;;;19.97;46.38
78206;BME280;67480;48.920;12.880;2023-08-08T05:44:00;97215.22;;;19.87;46.45
78206;BME280;67480;48.920;12.880;2023-08-08T05:46:25;97212.94;;;19.89;46.36
78206;BME280;67480;48.920;12.880;2023-08-08T05:48:50;97212.66;;;19.98;46.23
78206;BME280;67480;48.920;12.880;2023-08-08T05:51:16;97211.03;;;20.24;45.55
78206;BME280;67480;48.920;12.880;2023-08-08T05:53:41;97205.28;;;20.32;44.78
78206;BME280;67480;48.920;12.880;2023-08-08T05:56:06;97211.50;;;20.33;44.42
78206;BME280;67480;48.920;12.880;2023-08-08T05:58:33;97216.41;;;20.84;43.95
78206;BME280;67480;48.920;12.880;2023-08-08T06:00:59;97209.19;;;21.06;44.17
78206;BME280;67480;48.920;12.880;2023-08-08T06:03:24;97217.22;;;20.88;43.75
78206;BME280;67480;48.920;12.880;2023-08-08T06:05:49;97209.66;;;20.41;42.43
78206;BME280;67480;48.920;12.880;2023-08-08T06:08:15;97212.25;;;20.30;43.80
78206;BME280;67480;48.920;12.880;2023-08-08T06:10:41;97216.94;;;20.60;43.69
78206;BME280;67480;48.920;12.880;2023-08-08T06:13:07;97210.84;;;20.77;43.76
78206;BME280;67480;48.920;12.880;2023-08-08T06:15:32;97211.59;;;21.11;43.26
78206;BME280;67480;48.920;12.880;2023-08-08T06:17:58;97216.13;;;20.97;42.96
78206;BME280;67480;48.920;12.880;2023-08-08T06:20:23;97209.97;;;21.48;41.52
78206;BME280;67480;48.920;12.880;2023-08-08T06:22:49;97209.59;;;21.50;41.10
78206;BME280;67480;48.920;12.880;2023-08-08T06:25:14;97219.09;;;21.66;40.57
78206;BME280;67480;48.920;12.880;2023-08-08T06:27:39;97219.78;;;21.53;40.32
78206;BME280;67480;48.920;12.880;2023-08-08T06:30:05;97214.25;;;21.04;41.37
78206;BME280;67480;48.920;12.880;2023-08-08T06:32:31;97220.03;;;21.37;41.85
78206;BME280;67480;48.920;12.880;2023-08-08T06:34:56;97217.34;;;21.44;40.70
78206;BME280;67480;48.920;12.880;2023-08-08T06:37:21;97220.66;;;21.64;40.11
78206;BME280;67480;48.920;12.880;2023-08-08T06:39:47;97211.31;;;21.76;40.21
78206;BME280;67480;48.920;12.880;2023-08-08T06:42:12;97210.88;;;21.66;40.38
78206;BME280;67480;48.920;12.880;2023-08-08T06:44:44;97221.38;;;22.16;39.87
78206;BME280;67480;48.920;12.880;2023-08-08T06:47:10;97225.72;;;22.28;39.24
78206;BME280;67480;48.920;12.880;2023-08-08T06:49:36;97226.41;;;22.07;39.31
78206;BME280;67480;48.920;12.880;2023-08-08T06:52:01;97224.88;;;21.54;40.09
78206;BME280;67480;48.920;12.880;2023-08-08T06:54:27;97223.63;;;22.03;40.64
78206;BME280;67480;48.920;12.880;2023-08-08T06:56:53;97224.88;;;22.17;40.14
78206;BME280;67480;48.920;12.880;2023-08-08T06:59:19;97224.50;;;22.15;40.47
78206;BME280;67480;48.920;12.880;2023-08-08T07:01:44;97215.94;;;21.61;42.40
78206;BME280;67480;48.920;12.880;2023-08-08T07:04:09;97215.34;;;21.37;41.29
78206;BME280;67480;48.920;12.880;2023-08-08T07:06:35;97220.50;;;22.01;40.69
78206;BME280;67480;48.920;12.880;2023-08-08T07:09:01;97220.31;;;22.50;39.88
78206;BME280;67480;48.920;12.880;2023-08-08T07:11:26;97212.22;;;22.79;39.50
78206;BME280;67480;48.920;12.880;2023-08-08T07:13:52;97202.84;;;23.44;37.17
78206;BME280;67480;48.920;12.880;2023-08-08T07:16:17;97212.66;;;23.67;37.28
78206;BME280;67480;48.920;12.880;2023-08-08T07:18:42;97198.56;;;23.58;37.07
78206;BME280;67480;48.920;12.880;2023-08-08T07:21:08;97206.38;;;23.70;37.24
78206;BME280;67480;48.920;12.880;2023-08-08T07:23:33;97200.13;;;23.19;38.12
78206;BME280;67480;48.920;12.880;2023-08-08T07:25:58;97202.09;;;23.40;37.14
78206;BME280;67480;48.920;12.880;2023-08-08T07:28:23;97202.88;;;23.66;37.05
78206;BME280;67480;48.920;12.880;2023-08-08T07:30:49;97195.78;;;23.69;37.32
78206;BME280;67480;48.920;12.880;2023-08-08T07:33:14;97195.75;;;23.97;37.45
78206;BME280;67480;48.920;12.880;2023-08-08T07:35:39;97188.34;;;23.47;37.01
78206;BME280;67480;48.920;12.880;2023-08-08T07:38:05;97189.53;;;23.64;37.76
78206;BME280;67480;48.920;12.880;2023-08-08T07:40:31;97190.31;;;23.29;37.76
78206;BME280;67480;48.920;12.880;2023-08-08T07:42:56;97189.13;;;23.41;37.65
78206;BME280;67480;48.920;12.880;2023-08-08T07:45:21;97195.78;;;23.79;36.69
78206;BME280;67480;48.920;12.880;2023-08-08T07:47:47;97197.63;;;24.33;36.42
78206;BME280;67480;48.920;12.880;2023-08-08T07:50:12;97199.13;;;25.15;35.34
78206;BME280;67480;48.920;12.880;2023-08-08T07:52:38;97188.94;;;25.95;33.84
78206;BME280;67480;48.920;12.880;2023-08-08T07:55:04;97185.19;;;25.33;34.59
78206;BME280;67480;48.920;12.880;2023-08-08T07:57:31;97183.13;;;25.52;33.90
78206;BME280;67480;48.920;12.880;2023-08-08T07:59:58;97196.59;;;26.53;33.04
78206;BME280;67480;48.920;12.880;2023-08-08T08:02:24;97189.63;;;29.10;29.00
78206;BME280;67480;48.920;12.880;2023-08-08T08:04:49;97199.28;;;28.66;29.12
78206;BME280;67480;48.920;12.880;2023-08-08T08:07:14;97190.13;;;28.12;29.65
78206;BME280;67480;48.920;12.880;2023-08-08T08:09:40;97184.84;;;28.58;29.34
78206;BME280;67480;48.920;12.880;2023-08-08T08:12:08;97194.03;;;30.03;27.30
78206;BME280;67480;48.920;12.880;2023-08-08T08:14:33;97189.53;;;30.77;26.50
78206;BME280;67480;48.920;12.880;2023-08-08T08:16:58;97185.28;;;29.09;28.39
78206;BME280;67480;48.920;12.880;2023-08-08T08:19:24;97177.19;;;27.15;30.58
78206;BME280;67480;48.920;12.880;2023-08-08T08:21:49;97179.31;;;27.30;30.44
78206;BME280;67480;48.920;12.880;2023-08-08T08:24:14;97184.50;;;27.72;29.97
78206;BME280;67480;48.920;12.880;2023-08-08T08:26:40;97177.84;;;27.93;30.32
78206;BME280;67480;48.920;12.880;2023-08-08T08:29:05;97169.50;;;27.73;29.89
78206;BME280;67480;48.920;12.880;2023-08-08T08:31:30;97174.56;;;28.75;28.50
78206;BME280;67480;48.920;12.880;2023-08-08T08:33:55;97175.25;;;29.16;27.44
78206;BME280;67480;48.920;12.880;2023-08-08T08:36:21;97168.66;;;29.09;28.46
78206;BME280;67480;48.920;12.880;2023-08-08T08:38:47;97168.63;;;29.42;27.86
78206;BME280;67480;48.920;12.880;2023-08-08T08:41:15;97170.03;;;29.34;28.10
78206;BME280;67480;48.920;12.880;2023-08-08T08:43:42;97164.13;;;28.83;29.26
78206;BME280;67480;48.920;12.880;2023-08-08T08:46:11;97169.47;;;27.97;29.95
78206;BME280;67480;48.920;12.880;2023-08-08T08:48:37;97165.09;;;29.58;27.58
78206;BME280;67480;48.920;12.880;2023-08-08T08:51:02;97162.22;;;28.96;28.99
78206;BME280;67480;48.920;12.880;2023-08-08T08:53:28;97167.84;;;31.10;26.25
78206;BME280;67480;48.920;12.880;2023-08-08T08:55:56;97165.84;;;33.97;22.85
78206;BME280;67480;48.920;12.880;2023-08-08T08:58:22;97165.75;;;34.71;22.63
78206;BME280;67480;48.920;12.880;2023-08-08T09:00:49;97164.22;;;35.91;21.31
78206;BME280;67480;48.920;12.880;2023-08-08T09:03:16;97158.19;;;34.44;22.35
78206;BME280;67480;48.920;12.880;2023-08-08T09:05:42;97149.59;;;32.90;24.50
78206;BME280;67480;48.920;12.880;2023-08-08T09:08:10;97154.81;;;30.01;27.27
78206;BME280;67480;48.920;12.880;2023-08-08T09:10:37;97140.63;;;29.53;28.58
78206;BME280;67480;48.920;12.880;2023-08-08T09:13:03;97129.34;;;28.25;29.65
78206;BME280;67480;48.920;12.880;2023-08-08T09:15:32;97129.63;;;26.76;32.65
78206;BME280;67480;48.920;12.880;2023-08-08T09:17:58;97126.75;;;25.94;33.96
78206;BME280;67480;48.920;12.880;2023-08-08T09:20:25;97119.22;;;25.19;35.22
78206;BME280;67480;48.920;12.880;2023-08-08T09:22:53;97109.94;;;24.38;36.52
78206;BME280;67480;48.920;12.880;2023-08-08T09:25:19;97120.78;;;24.67;36.15
78206;BME280;67480;48.920;12.880;2023-08-08T09:27:44;97129.22;;;24.38;37.61
78206;BME280;67480;48.920;12.880;2023-08-08T09:30:10;97124.94;;;24.27;38.20
78206;BME280;67480;48.920;12.880;2023-08-08T09:32:36;97140.50;;;23.41;39.33
78206;BME280;67480;48.920;12.880;2023-08-08T09:35:02;97134.22;;;23.52;39.27
78206;BME280;67480;48.920;12.880;2023-08-08T09:37:28;97132.16;;;23.84;39.60
78206;BME280;67480;48.920;12.880;2023-08-08T09:40:01;97144.28;;;26.11;35.38
78206;BME280;67480;48.920;12.880;2023-08-08T09:42:28;97138.59;;;30.29;29.06
78206;BME280;67480;48.920;12.880;2023-08-08T09:44:53;97148.72;;;32.17;26.69
78206;BME280;67480;48.920;12.880;2023-08-08T09:47:21;97147.22;;;34.22;23.55
78206;BME280;67480;48.920;12.880;2023-08-08T09:49:47;97152.13;;;35.70;22.08
78206;BME280;67480;48.920;12.880;2023-08-08T09:52:13;97155.44;;;37.85;19.99
78206;BME280;67480;48.920;12.880;2023-08-08T09:54:40;97142.53;;;37.72;19.92
78206;BME280;67480;48.920;12.880;2023-08-08T09:57:06;97150.81;;;38.60;20.12
78206;BME280;67480;48.920;12.880;2023-08-08T09:59:32;97142.97;;;36.88;21.40
78206;BME280;67480;48.920;12.880;2023-08-08T10:01:57;97152.88;;;37.60;20.74
78206;BME280;67480;48.920;12.880;2023-08-08T10:04:23;97138.06;;;37.60;20.03
78206;BME280;67480;48.920;12.880;2023-08-08T10:06:49;97138.50;;;36.16;20.92
78206;BME280;67480;48.920;12.880;2023-08-08T10:09:14;97137.75;;;35.04;21.13
78206;BME280;67480;48.920;12.880;2023-08-08T10:11:40;97128.63;;;36.06;21.03
78206;BME280;67480;48.920;12.880;2023-08-08T10:14:09;97119.03;;;31.92;23.93
78206;BME280;67480;48.920;12.880;2023-08-08T10:16:37;97116.69;;;29.30;26.80
78206;BME280;67480;48.920;12.880;2023-08-08T10:19:03;97109.56;;;30.72;26.99
78206;BME280;67480;48.920;12.880;2023-08-08T10:21:41;97119.22;;;30.67;27.04
78206;BME280;67480;48.920;12.880;2023-08-08T10:24:08;97116.63;;;31.81;25.70
78206;BME280;67480;48.920;12.880;2023-08-08T10:26:51;97110.56;;;32.99;24.01
78206;BME280;67480;48.920;12.880;2023-08-08T10:29:20;97104.78;;;33.80;23.20
78206;BME280;67480;48.920;12.880;2023-08-08T10:31:53;97110.63;;;32.05;24.34
78206;BME280;67480;48.920;12.880;2023-08-08T10:34:20;97113.75;;;34.55;22.39
78206;BME280;67480;48.920;12.880;2023-08-08T10:36:51;97115.72;;;34.64;21.77
78206;BME280;67480;48.920;12.880;2023-08-08T10:39:18;97102.91;;;33.77;22.75
78206;BME280;67480;48.920;12.880;2023-08-08T10:41:50;97087.81;;;31.75;24.62
78206;BME280;67480;48.920;12.880;2023-08-08T10:44:25;97096.03;;;29.64;26.48
78206;BME280;67480;48.920;12.880;2023-08-08T10:46:51;97080.81;;;28.41;29.33
78206;BME280;67480;48.920;12.880;2023-08-08T10:49:20;97082.44;;;28.01;29.69
78206;BME280;67480;48.920;12.880;2023-08-08T10:51:47;97074.53;;;28.89;29.25
78206;BME280;67480;48.920;12.880;2023-08-08T10:54:14;97081.41;;;28.12;29.68
78206;BME280;67480;48.920;12.880;2023-08-08T10:56:39;97075.09;;;27.31;30.30
78206;BME280;67480;48.920;12.880;2023-08-08T10:59:17;97076.72;;;27.05;31.18
78206;BME280;67480;48.920;12.880;2023-08-08T11:01:45;97070.59;;;28.01;29.56
78206;BME280;67480;48.920;12.880;2023-08-08T11:04:12;97068.81;;;28.97;27.32
78206;BME280;67480;48.920;12.880;2023-08-08T11:06:38;97086.09;;;30.34;25.96
78206;BME280;67480;48.920;12.880;2023-08-08T11:09:07;97074.63;;;30.45;24.97
78206;BME280;67480;48.920;12.880;2023-08-08T11:11:39;97062.72;;;30.96;25.83
78206;BME280;67480;48.920;12.880;2023-08-08T11:14:18;97055.97;;;30.20;26.28
78206;BME280;67480;48.920;12.880;2023-08-08T11:16:46;97049.19;;;29.37;26.12
78206;BME280;67480;48.920;12.880;2023-08-08T11:19:12;97037.50;;;27.57;28.47
78206;BME280;67480;48.920;12.880;2023-08-08T11:21:40;97049.53;;;27.87;28.25
78206;BME280;67480;48.920;12.880;2023-08-08T11:24:06;97035.94;;;27.96;28.21
78206;BME280;67480;48.920;12.880;2023-08-08T11:26:36;97040.44;;;27.87;28.37
78206;BME280;67480;48.920;12.880;2023-08-08T11:29:03;97036.50;;;27.88;27.04
78206;BME280;67480;48.920;12.880;2023-08-08T11:31:29;97047.78;;;27.13;27.81
78206;BME280;67480;48.920;12.880;2023-08-08T11:33:55;97057.28;;;29.15;25.55
78206;BME280;67480;48.920;12.880;2023-08-08T11:36:22;97054.63;;;30.12;23.27
78206;BME280;67480;48.920;12.880;2023-08-08T11:38:49;97043.00;;;30.17;24.17
78206;BME280;67480;48.920;12.880;2023-08-08T11:41:16;97060.31;;;30.21;23.17
78206;BME280;67480;48.920;12.880;2023-08-08T11:43:43;97044.72;;;31.58;23.09
78206;BME280;67480;48.920;12.880;2023-08-08T11:46:11;97050.03;;;32.50;22.35
78206;BME280;67480;48.920;12.880;2023-08-08T11:48:37;97038.00;;;30.25;22.97
78206;BME280;67480;48.920;12.880;2023-08-08T11:51:04;97030.88;;;31.23;22.47
78206;BME280;67480;48.920;12.880;2023-08-08T11:53:29;97037.31;;;30.72;22.87
78206;BME280;67480;48.920;12.880;2023-08-08T11:55:55;97039.97;;;30.63;23.24
78206;BME280;67480;48.920;12.880;2023-08-08T11:58:23;97045.22;;;33.00;22.57
78206;BME280;67480;48.920;12.880;2023-08-08T12:00:50;97036.38;;;31.58;21.48
78206;BME280;67480;48.920;12.880;2023-08-08T12:03:18;97039.09;;;31.93;23.61
78206;BME280;67480;48.920;12.880;2023-08-08T12:05:45;97035.28;;;31.55;21.97
78206;BME280;67480;48.920;12.880;2023-08-08T12:08:11;97029.97;;;30.65;22.69
78206;BME280;67480;48.920;12.880;2023-08-08T12:10:36;97024.47;;;29.72;22.62
78206;BME280;67480;48.920;12.880;2023-08-08T12:13:01;97029.44;;;30.45;23.74
78206;BME280;67480;48.920;12.880;2023-08-08T12:15:32;97033.28;;;27.89;25.30
78206;BME280;67480;48.920;12.880;2023-08-08T12:18:01;97025.34;;;28.93;24.03
78206;BME280;67480;48.920;12.880;2023-08-08T12:20:28;97043.59;;;29.53;23.60
78206;BME280;67480;48.920;12.880;2023-08-08T12:22:54;97028.34;;;30.16;23.19
78206;BME280;67480;48.920;12.880;2023-08-08T12:25:20;97022.97;;;32.60;21.95
78206;BME280;67480;48.920;12.880;2023-08-08T12:27:45;97028.16;;;31.54;22.12
78206;BME280;67480;48.920;12.880;2023-08-08T12:30:11;97026.34;;;30.43;22.77
78206;BME280;67480;48.920;12.880;2023-08-08T12:32:36;97026.66;;;30.70;22.92
78206;BME280;67480;48.920;12.880;2023-08-08T12:35:02;97020.72;;;30.81;22.53
78206;BME280;67480;48.920;12.880;2023-08-08T12:37:29;97024.88;;;31.11;22.48
78206;BME280;67480;48.920;12.880;2023-08-08T12:39:55;97020.06;;;31.25;22.33
78206;BME280;67480;48.920;12.880;2023-08-08T12:42:20;97019.25;;;29.61;24.53
78206;BME280;67480;48.920;12.880;2023-08-08T12:44:46;97027.19;;;28.84;25.44
78206;BME280;67480;48.920;12.880;2023-08-08T12:47:12;97019.44;;;28.09;25.56
78206;BME280;67480;48.920;12.880;2023-08-08T12:49:37;97006.16;;;28.20;25.53